Flight Track Log - Related Links

Times and Time Zones

All times are in EDT time to prevent confusion due to time zone crossing. See the NKS416 flight status page for this flight to view local times or setup timezone preferences in your user account.

Time Position Orientation Groundspeed Altitude Reporting Facility
EDT Latitude Longitude Course Direction KTS MPH feet Rate Location/Type
Sun 10:24:25 PM 26.0750 -80.1367 84° East 155 178 700  Level Miami Center
Sun 10:25:22 PM 26.0803 -80.0836 84° East 206 237 2,300 1,478 Climbing Miami Center
Sun 10:25:34 PM 26.0869 -80.0722 57° Northeast 238 274 2,400 2,060 Climbing Miami Center
Sun 10:26:29 PM 26.0928 -79.9892 86° East 291 335 4,600 2,276 Climbing Miami Center
Sun 10:26:32 PM 26.0972 -79.9753 70° East 286 329 4,600 2,000 Level Miami Center
Sun 10:27:23 PM 26.1278 -79.9136 61° Northeast 300 345 6,400 2,100 Climbing Miami Center
Sun 10:27:32 PM 26.1450 -79.8911 50° Northeast 292 336 6,700 3,231 Climbing Miami Center
Sun 10:28:28 PM 26.1736 -79.8247 64° Northeast 302 348 9,900 2,806 Climbing Miami Center
Sun 10:28:34 PM 26.1842 -79.8108 50° Northeast 299 344 9,600 1,219 Descending Miami Center
Sun 10:29:32 PM 26.2297 -79.7311 57° Northeast 340 391 11,200 1,627 Climbing Miami Center
Sun 10:30:32 PM 26.2819 -79.6256 61° Northeast 364 419 12,800 1,820 Climbing Miami Center
Sun 10:31:34 PM 26.3486 -79.5253 53° Northeast 386 444 14,900 1,712 Climbing Miami Center
Sun 10:37:43 PM 27.0428 -79.1428 25° Northeast 473 544 25,100 1,587 Climbing FlightAware ADS-B
Sun 10:38:30 PM 27.1362 -79.0937 25° Northeast 482 555 25,900 1,125 Climbing FlightAware ADS-B
Sun 10:39:03 PM 27.1984 -79.0610 25° Northeast 485 558 26,600 1,167 Climbing FlightAware ADS-B
Sun 10:39:42 PM 27.2806 -79.0176 25° Northeast 492 566 27,300 1,114 Climbing FlightAware ADS-B
Sun 10:40:13 PM 27.3489 -78.9827 23° Northeast 491 565 27,900 1,180 Climbing FlightAware ADS-B
Sun 10:40:43 PM 27.4041 -78.9606 17° North 487 560 28,500 1,200 Climbing FlightAware ADS-B
Sun 10:41:13 PM 27.4715 -78.9411 12° North 482 555 29,100 1,100 Climbing FlightAware ADS-B
Sun 10:41:43 PM 27.5449 -78.9286 North 479 551 29,600 1,230 Climbing FlightAware ADS-B
Sun 10:43:15 PM 27.7460 -78.9006 North 474 545 31,600 1,476 Climbing FlightAware ADS-B
Sun 10:43:49 PM 27.8179 -78.8905 North 459 528 32,700 1,367 Climbing FlightAware ADS-B
Sun 10:44:34 PM 27.9148 -78.8770 North 460 529 33,400 779 Climbing FlightAware ADS-B
Sun 10:45:06 PM 27.9836 -78.8674 North 466 536 33,700 762 Climbing FlightAware ADS-B
Sun 10:45:37 PM 28.0453 -78.8587 North 465 535 34,200 857 Climbing FlightAware ADS-B
Sun 10:46:37 PM 28.1758 -78.8403 North 457 526 35,000 403 Climbing FlightAware ADS-B
Sun 10:47:36 PM 28.3003 -78.8226 North 457 526 35,000  Level FlightAware ADS-B
Sun 10:48:36 PM 28.4147 -78.8086 North 459 528 35,000 -51 Level Miami Center
Sun 10:49:34 PM 28.5422 -78.7919 North 453 521 34,900 -50 Descending Miami Center
Sun 10:50:35 PM 28.6656 -78.7728 North 448 516 34,900  Level Miami Center
Sun 10:51:34 PM 28.7953 -78.7583 North 448 516 34,900  Level Miami Center
Sun 10:52:35 PM 28.9186 -78.7392 North 448 516 34,900 49 Level Miami Center
Sun 10:53:37 PM 29.0442 -78.7200 North 448 516 35,000 50 Climbing Miami Center
Sun 10:54:34 PM 29.1714 -78.7031 North 446 513 35,000  Level Miami Center
Sun 10:55:36 PM 29.2947 -78.6836 North 455 524 35,000  Level Miami Center
Sun 10:56:34 PM 29.4222 -78.6667 North 455 524 35,000  Level Miami Center
Sun 10:57:35 PM 29.5478 -78.6522 North 450 518 35,000 -49 Level Miami Center
Sun 10:58:36 PM 29.6647 -78.6278 10° North 442 509 34,900  Descending Miami Center
Sun 10:59:34 PM 29.7961 -78.6203 North 450 518 35,000  Climbing Miami Center
Sun 11:00:18 PM 29.8664 -78.5961 17° North 443 510 34,900  Descending Jacksonville Center
Sun 11:01:18 PM 29.9953 -78.5808 North 450 518 35,000 50 Climbing Jacksonville Center
Sun 11:02:18 PM 30.1111 -78.5517 12° North 440 506 35,000  Level Jacksonville Center
Sun 11:03:18 PM 30.2569 -78.5450 North 459 528 35,000  Level Jacksonville Center
Sun 11:04:18 PM 30.3900 -78.5269 North 473 544 35,000  Level Jacksonville Center
Sun 11:05:18 PM 30.5208 -78.5064 North 472 543 35,000 -50 Level Jacksonville Center
Sun 11:06:18 PM 30.6433 -78.4839 North 459 528 34,900 -50 Descending Jacksonville Center
Sun 11:07:18 PM 30.7739 -78.4633 North 460 529 34,900  Level Jacksonville Center
Sun 11:08:18 PM 30.8975 -78.4092 21° North 464 534 34,900  Level Jacksonville Center
Sun 11:09:18 PM 31.0156 -78.3261 31° Northeast 479 551 34,900 50 Level Jacksonville Center
Sun 11:10:18 PM 31.1339 -78.2547 27° Northeast 481 554 35,000  Climbing Jacksonville Center
Sun 11:11:18 PM 31.2497 -78.1642 34° Northeast 485 558 34,900  Descending Jacksonville Center
Sun 11:12:18 PM 31.3653 -78.0756 33° Northeast 490 564 35,000 50 Climbing Jacksonville Center
Sun 11:13:18 PM 31.4814 -78.0014 29° Northeast 483 556 35,000 -50 Level Jacksonville Center
Sun 11:14:18 PM 31.5947 -77.9100 34° Northeast 487 560 34,900  Descending Jacksonville Center
Sun 11:15:18 PM 31.7122 -77.8206 33° Northeast 492 566 35,000  Climbing Jacksonville Center
Sun 11:16:18 PM 31.8275 -77.7311 33° Northeast 492 566 34,900  Descending Jacksonville Center
Sun 11:17:18 PM 31.9411 -77.6467 32° Northeast 490 564 35,000 50 Climbing Jacksonville Center
Sun 11:18:18 PM 32.0403 -77.5258 46° Northeast 466 536 35,000 -50 Level Jacksonville Center
Sun 11:19:18 PM 32.1331 -77.4003 49° Northeast 483 556 34,900  Descending Jacksonville Center
Sun 11:20:18 PM 32.2553 -77.3339 25° Northeast 469 540 35,000 50 Climbing Jacksonville Center
Sun 11:21:18 PM 32.3864 -77.3258 North 449 517 35,000 -50 Level Jacksonville Center
Sun 11:22:18 PM 32.5153 -77.3106 North 454 522 34,900 -50 Descending Jacksonville Center
Sun 11:23:18 PM 32.6417 -77.2953 North 454 522 34,900  Level Jacksonville Center
Sun 11:24:18 PM 32.7675 -77.3075 355° North 454 522 34,900 41 Level Jacksonville Center
Sun 11:25:46 PM 32.9258 -77.3653 343° North 429 494 35,000 40 Climbing Washington Center
Sun 11:26:48 PM 33.0400 -77.4072 343° North 429 494 35,000 -50 Level Washington Center
Sun 11:27:46 PM 33.1583 -77.4469 344° North 429 494 34,900 -51 Descending Washington Center
Sun 11:28:46 PM 33.2764 -77.4894 343° North 434 499 34,900 49 Level Washington Center
Sun 11:29:48 PM 33.3967 -77.5317 344° North 440 506 35,000 50 Climbing Washington Center
Sun 11:30:47 PM 33.5172 -77.5719 344° North 445 512 35,000  Level Washington Center
Sun 11:31:48 PM 33.6353 -77.6169 342° North 445 512 35,000 -50 Level Washington Center
Sun 11:32:46 PM 33.7644 -77.6303 355° North 445 512 34,900 -50 Descending Washington Center
Sun 11:33:47 PM 33.8958 -77.6333 359° North 458 527 34,900  Level Washington Center
Sun 11:34:48 PM 34.0292 -77.6417 357° North 468 539 34,900  Level Washington Center
Sun 11:35:46 PM 34.1750 -77.6528 356° North 474 545 34,900 51 Level Washington Center
Sun 11:36:46 PM 34.3019 -77.6711 353° North 474 545 35,000 50 Climbing Washington Center
Sun 11:37:46 PM 34.4353 -77.6844 355° North 474 545 35,000  Level Washington Center
Sun 11:38:46 PM 34.5664 -77.7006 354° North 474 545 35,000  Level Washington Center
Sun 11:39:47 PM 34.6975 -77.7164 354° North 474 545 35,000  Level Washington Center
Sun 11:43:56 PM 35.2381 -77.7750 355° North 465 535 35,000  Level FlightAware ADS-B
Sun 11:46:35 PM 35.5775 -77.8146 353° North 470 541 35,000  Level FlightAware ADS-B
Sun 11:47:46 PM 35.7325 -77.8361 353° North 463 533 35,000  Level Washington Center
Sun 11:48:46 PM 35.8633 -77.8553 353° North 463 533 35,000  Level Washington Center
Sun 11:49:48 PM 35.9944 -77.8742 353° North 463 533 35,000  Level Washington Center
Sun 11:50:46 PM 36.1319 -77.8911 354° North 468 539 35,000  Level Washington Center
Sun 11:51:46 PM 36.2608 -77.9078 354° North 473 544 35,000  Level Washington Center
Sun 11:52:47 PM 36.3942 -77.9272 353° North 473 544 35,000  Level Washington Center
Sun 11:53:48 PM 36.5086 -77.9436 353° North 473 544 35,000  Level Washington Center
Sun 11:54:48 PM 36.6394 -77.9656 352° North 473 544 35,000  Level Washington Center
Sun 11:55:49 PM 36.7728 -77.9825 354° North 473 544 35,000  Level Washington Center
Sun 11:56:46 PM 36.9058 -78.0022 353° North 478 550 35,000  Level Washington Center
Mon 12:00:43 AM 37.4429 -78.0762 353° North 481 554 35,000  Level FlightAware ADS-B (KWWD)
Mon 12:01:48 AM 37.5694 -78.0967 353° North 478 550 35,000  Level Washington Center
Mon 12:02:46 AM 37.7047 -78.1142 354° North 478 550 35,000  Level Washington Center
Mon 12:03:46 AM 37.8378 -78.1319 354° North 478 550 35,000  Level Washington Center
Mon 12:04:47 AM 37.9708 -78.1522 353° North 478 550 35,000  Level Washington Center
Mon 12:05:46 AM 38.1142 -78.1756 353° North 478 550 35,000  Level Washington Center
Mon 12:06:46 AM 38.2514 -78.1961 353° North 483 556 35,000  Level Washington Center
Mon 12:07:46 AM 38.3822 -78.2167 353° North 483 556 35,000  Level Washington Center
Mon 12:08:46 AM 38.5175 -78.2372 353° North 478 550 35,000  Level Washington Center
Mon 12:09:48 AM 38.6506 -78.2553 354° North 483 556 35,000  Level Washington Center
Mon 12:10:47 AM 38.7833 -78.2733 354° North 483 556 35,000  Level Washington Center
Mon 12:16:55 AM 39.3323 -78.3544 353° North 470 541 35,000  Level FlightAware ADS-B (LFML / MRS)
Mon 12:17:30 AM 39.6519 -78.4019 353° North 475 547 35,000  Level Cleveland Center
Mon 12:18:31 AM 39.7997 -78.4272 353° North 471 542 35,000  Level Cleveland Center
Mon 12:19:31 AM 39.9292 -78.4458 354° North 471 542 35,000  Level Cleveland Center
Mon 12:20:32 AM 40.0558 -78.4653 353° North 466 536 35,000  Level Cleveland Center
Mon 12:21:32 AM 40.1825 -78.4847 353° North 463 533 35,000  Level Cleveland Center
Mon 12:22:32 AM 40.3056 -78.5050 353° North 453 521 35,000  Level Cleveland Center
Mon 12:23:33 AM 40.4300 -78.5236 354° North 451 519 35,000 -63 Level Cleveland Center
Mon 12:28:50 AM 41.1048 -78.6296 354° North 472 543 34,600 -156 Descending FlightAware ADS-B (CYYZ)
Mon 12:29:19 AM 41.1799 -78.6417 354° North 471 542 34,100 -1,322 Descending FlightAware ADS-B (CYYZ)
Mon 12:29:49 AM 41.2444 -78.6519 353° North 471 542 33,300 -2,100 Descending FlightAware ADS-B (CYYZ)
Mon 12:30:19 AM 41.3082 -78.6622 354° North 468 539 32,000 -2,262 Descending FlightAware ADS-B (CYYZ)
Mon 12:30:50 AM 41.3741 -78.6728 354° North 460 529 31,000 -1,967 Descending FlightAware ADS-B (CYYZ)
Mon 12:31:20 AM 41.4360 -78.6826 353° North 456 525 30,000 -2,136 Descending FlightAware ADS-B (CYYZ)
Mon 12:31:49 AM 41.4991 -78.6928 354° North 451 519 28,900 -2,100 Descending FlightAware ADS-B (CYYZ)
Mon 12:32:20 AM 41.5610 -78.7026 354° North 446 513 27,900 -1,700 Descending FlightAware ADS-B (CYYZ)
Mon 12:32:49 AM 41.6041 -78.7096 353° North 441 507 27,200 -2,106 Descending FlightAware ADS-B (CYYZ)
Mon 12:33:54 AM 41.7482 -78.7329 353° North 432 497 24,600 -2,364 Descending FlightAware ADS-B (CYYZ)
Mon 12:34:28 AM 41.8142 -78.7438 353° North 426 490 23,300 -2,123 Descending FlightAware ADS-B (CYYZ)
Mon 12:34:59 AM 41.8775 -78.7540 353° North 416 479 22,300 -2,026 Descending FlightAware ADS-B (CYYZ)
Mon 12:35:45 AM 41.9627 -78.7681 353° North 408 470 20,700 -1,920 Descending FlightAware ADS-B (CYYZ)
Mon 12:36:14 AM 42.0096 -78.7758 353° North 396 456 19,900 -1,684 Descending FlightAware ADS-B (CYYZ)
Mon 12:36:42 AM 42.0601 -78.7841 353° North 382 440 19,100 -2,361 Descending FlightAware ADS-B (CYYZ)
Mon 12:37:15 AM 42.1228 -78.7944 353° North 380 437 17,500 -2,419 Descending FlightAware ADS-B (CYYZ)
Mon 12:37:44 AM 42.1730 -78.8026 353° North 371 427 16,600 -2,034 Descending FlightAware ADS-B (CYYZ)
Mon 12:38:14 AM 42.2249 -78.8111 353° North 361 415 15,500 -2,200 Descending FlightAware ADS-B (CYYZ)
Mon 12:38:44 AM 42.2734 -78.8192 353° North 355 409 14,400 -2,200 Descending FlightAware ADS-B (CYYZ)
Mon 12:39:14 AM 42.3223 -78.8273 353° North 350 403 13,300 -2,066 Descending FlightAware ADS-B (CYYZ)
Mon 12:39:45 AM 42.3705 -78.8353 353° North 338 389 12,300 -2,066 Descending FlightAware ADS-B (CYYZ)
Mon 12:40:15 AM 42.4162 -78.8429 353° North 335 386 11,200 -1,600 Descending FlightAware ADS-B (CYYZ)
Mon 12:40:45 AM 42.4612 -78.8502 353° North 316 364 10,700 -508 Descending FlightAware ADS-B (CYYZ)
Mon 12:41:14 AM 42.5026 -78.8572 353° North 315 362 10,700  Level FlightAware ADS-B (CYYZ)
Mon 12:41:44 AM 42.5479 -78.8641 358° North 319 367 10,700  Level FlightAware ADS-B (CYYZ)
Mon 12:41:54 AM 42.5629 -78.8616 13° North 327 376 10,700  Level FlightAware ADS-B (CYYZ)
Mon 12:42:34 AM 42.6168 -78.8369 19° North 297 342 10,700 -514 Level FlightAware ADS-B (CYYZ)
Mon 12:43:04 AM 42.6550 -78.8185 19° North 289 333 10,100 -1,333 Descending FlightAware ADS-B (CYYZ)
Mon 12:43:19 AM 42.6737 -78.8097 19° North 286 329 9,700 -1,548 Descending FlightAware ADS-B (CYYZ)
Mon 12:43:35 AM 42.6929 -78.8008 18° North 281 323 9,300 -1,800 Descending FlightAware ADS-B (CYYZ)
Mon 12:43:49 AM 42.7109 -78.7929 17° North 277 319 8,800 -2,276 Descending FlightAware ADS-B (CYYZ)
Mon 12:44:04 AM 42.7295 -78.7849 17° North 275 316 8,200 -2,400 Descending FlightAware ADS-B (CYYZ)
Mon 12:44:19 AM 42.7474 -78.7774 17° North 273 314 7,600 -2,200 Descending FlightAware ADS-B (CYYZ)
Mon 12:44:34 AM 42.7651 -78.7702 16° North 267 307 7,100 -2,000 Descending FlightAware ADS-B (CYYZ)
Mon 12:44:49 AM 42.7822 -78.7634 16° North 262 302 6,600 -1,800 Descending FlightAware ADS-B (CYYZ)
Mon 12:45:04 AM 42.7996 -78.7567 15° North 262 302 6,200 -1,600 Descending FlightAware ADS-B (CYYZ)
Mon 12:45:19 AM 42.8174 -78.7500 15° North 259 298 5,800 -1,371 Descending FlightAware ADS-B (CYYZ)
Mon 12:45:39 AM 42.8361 -78.7430 15° North 256 295 5,400 -1,096 Descending FlightAware ADS-B (CYYZ)
Mon 12:47:14 AM 42.9425 -78.7064 13° North 221 254 3,700 -911 Descending FlightAware ADS-B (CYYZ)
Mon 12:47:31 AM 42.9603 -78.7009 13° North 207 238 3,700 -353 Level FlightAware ADS-B (CYYZ)
Mon 12:48:39 AM 43.0181 -78.7050 13° North 205 236 3,200 -558 Descending Cleveland Center
Mon 12:49:40 AM 43.0736 -78.7225 347° North 199 229 2,500 -347 Descending Cleveland Center
Mon 12:50:40 AM 43.0975 -78.7797 300° West 182 209 2,500 -250 Level Cleveland Center
Mon 12:51:40 AM 43.1100 -78.8325 288° West 147 169 2,000 -500 Descending Cleveland Center
Mon 12:52:40 AM 43.1094 -78.8811 269° West 143 165 1,500 -500 Descending Cleveland Center

Login

Don't have an account? Register now (free) for customized features, flight alerts, and more!